Patriot, Indiana
Current Conditions -  °F | °C
As of 2:52 PM on Monday 26 Jan 2015 (Local Time) from KCVG Reporting Station
Scattered Clouds Scattered Clouds  
Wind Chill: 21°   Ceiling: Unl
Heat Index: 29°   Visibility: 10mi
Dew Point: 18°   Wind: 8mph
Humidity: 64%   Direction: 310°NW
Pressure: 29.87"   Gusts: NA
Location:  38.84°N, 84.83°W
Report Text: KCVG 261952Z 31007KT 10SM FEW022 SCT250 M02/M08 A2987 RMK AO2 SLP122 T10171078
Loading
Personal Weather Stations






























Interactive Weather Map New forecast layout! Learn more

10-Day Weather Forecast

Advertisements
Track Severe Weather on mobile